Time;durP1;ratioP1;P1;durP2;ratioP2;P2;SDS_P1;SDS_P2;PMS_P1;PMS_P2;Temp;Humidity;BMP_temperature;BMP_pressure;BME280_temperature;BME280_humidity;BME280_pressure;Samples;Min_cycle;Max_cycle;Signal;HPM_P1;HPM_P2
2022/05/02 00:00:48;;;;;;;11.57;7.18;;;7.10;99.90;;;;;;5076114;28;20574;-49
2022/05/02 00:03:14;;;;;;;11.15;7.43;;;7.10;99.90;;;;;;5092403;28;20042;-51
2022/05/02 00:05:40;;;;;;;12.60;7.03;;;7.10;99.90;;;;;;5093349;28;20040;-49
2022/05/02 00:08:06;;;;;;;11.25;7.35;;;7.10;99.90;;;;;;5093270;28;20040;-49
2022/05/02 00:10:32;;;;;;;15.02;8.13;;;7.00;99.90;;;;;;5078159;28;20090;-48
2022/05/02 00:12:58;;;;;;;10.07;7.30;;;7.00;99.90;;;;;;5072770;28;20506;-48
2022/05/02 00:15:24;;;;;;;11.48;7.47;;;7.00;99.90;;;;;;5071964;28;20035;-46
2022/05/02 00:17:59;;;;;;;12.88;7.85;;;7.00;99.90;;;;;;5071679;28;20066;-50
2022/05/02 00:20:38;;;;;;;10.95;7.63;;;7.00;99.90;;;;;;5072854;28;20122;-50
2022/05/02 00:23:06;;;;;;;10.02;7.22;;;6.90;99.90;;;;;;5072107;28;20043;-47
2022/05/02 00:25:32;;;;;;;13.43;7.57;;;6.90;99.90;;;;;;5069889;28;20107;-50
2022/05/02 00:27:58;;;;;;;12.52;7.43;;;6.90;99.90;;;;;;5070056;28;20048;-47
2022/05/02 00:30:25;;;;;;;11.40;8.05;;;6.80;99.90;;;;;;5072761;28;20108;-52
2022/05/02 00:32:51;;;;;;;13.65;7.97;;;6.80;99.90;;;;;;5071351;28;20120;-50
2022/05/02 00:35:16;;;;;;;11.60;8.23;;;6.80;99.90;;;;;;5072813;28;20119;-52
2022/05/02 00:37:43;;;;;;;9.95;7.55;;;6.80;99.90;;;;;;5076648;28;20039;-49
2022/05/02 00:40:12;;;;;;;12.57;7.95;;;6.80;99.90;;;;;;5074833;28;20406;-49
2022/05/02 00:42:37;;;;;;;13.25;7.55;;;6.80;99.90;;;;;;5072622;28;20040;-49
2022/05/02 00:45:11;;;;;;;13.23;8.60;;;6.90;99.90;;;;;;5072465;28;20063;-52
2022/05/02 00:47:37;;;;;;;11.60;8.23;;;6.90;99.90;;;;;;5070955;28;20111;-52
2022/05/02 00:50:07;;;;;;;13.77;8.25;;;6.80;99.90;;;;;;5072626;28;20071;-53
2022/05/02 00:52:33;;;;;;;12.75;7.97;;;6.80;99.90;;;;;;5070312;28;20047;-49
2022/05/02 00:55:03;;;;;;;11.75;7.65;;;6.70;99.90;;;;;;5063240;28;20076;-50
2022/05/02 00:57:31;;;;;;;15.55;8.48;;;6.70;99.90;;;;;;5073195;28;20160;-51
2022/05/02 00:59:56;;;;;;;12.23;8.35;;;6.70;99.90;;;;;;5088653;28;20480;-49
2022/05/02 01:02:22;;;;;;;12.27;8.10;;;6.70;99.90;;;;;;5083282;28;20078;-52
2022/05/02 01:04:47;;;;;;;15.70;8.32;;;6.70;99.90;;;;;;5076948;28;20079;-52
2022/05/02 01:07:18;;;;;;;13.05;8.63;;;6.70;99.90;;;;;;5071700;28;20052;-49
2022/05/02 01:09:47;;;;;;;11.77;7.85;;;6.60;99.90;;;;;;5074007;28;20047;-50
2022/05/02 01:12:15;;;;;;;12.05;8.27;;;6.60;99.90;;;;;;5070811;28;20036;-53
2022/05/02 01:14:42;;;;;;;12.27;8.43;;;6.60;99.90;;;;;;5076472;28;21718;-53
2022/05/02 01:17:08;;;;;;;10.63;8.13;;;6.50;99.90;;;;;;5079456;28;20043;-52
2022/05/02 01:19:34;;;;;;;14.85;8.50;;;6.50;99.90;;;;;;5077402;28;20516;-50
2022/05/02 01:22:00;;;;;;;11.93;7.72;;;6.50;99.90;;;;;;5092216;28;20036;-51
2022/05/02 01:24:52;;;;;;;12.50;8.45;;;6.50;99.90;;;;;;5077366;28;20040;-48
2022/05/02 01:27:17;;;;;;;13.23;9.20;;;6.50;99.90;;;;;;5069282;28;20056;-49
2022/05/02 01:29:45;;;;;;;12.43;8.85;;;6.50;99.90;;;;;;5074925;28;20420;-51
2022/05/02 01:32:14;;;;;;;16.48;8.88;;;6.50;99.90;;;;;;5073419;28;20386;-50
2022/05/02 01:34:40;;;;;;;17.20;9.80;;;6.40;99.90;;;;;;5089926;28;20046;-50
2022/05/02 01:37:10;;;;;;;15.43;10.05;;;6.40;99.90;;;;;;5091932;28;20279;-51
2022/05/02 01:39:37;;;;;;;14.07;9.13;;;6.40;99.90;;;;;;5091492;28;20036;-50
2022/05/02 01:42:04;;;;;;;14.82;9.23;;;6.40;99.90;;;;;;5090249;28;20040;-52
2022/05/02 01:44:30;;;;;;;12.95;9.20;;;6.30;99.90;;;;;;5087739;28;20408;-51
2022/05/02 01:46:56;;;;;;;13.68;9.55;;;6.30;99.90;;;;;;5072785;28;20032;-49
2022/05/02 01:49:22;;;;;;;14.80;9.48;;;6.20;99.90;;;;;;5070430;28;20036;-52
2022/05/02 01:51:48;;;;;;;15.35;8.93;;;6.20;99.90;;;;;;5070717;28;20127;-48
2022/05/02 01:54:14;;;;;;;15.38;10.38;;;6.20;99.90;;;;;;5071253;28;20091;-51
2022/05/02 01:56:40;;;;;;;16.02;10.02;;;6.20;99.90;;;;;;5073306;28;20036;-50
2022/05/02 01:59:06;;;;;;;14.98;9.18;;;6.20;99.90;;;;;;5062164;28;20131;-52
2022/05/02 02:01:32;;;;;;;13.80;9.63;;;6.10;99.90;;;;;;5073720;28;20051;-53
2022/05/02 02:05:48;;;;;;;18.50;10.35;;;6.00;99.90;;;;;;5073814;28;20048;-49
2022/05/02 02:06:48;;;;;;;15.43;9.70;;;6.00;99.90;;;;;;5071104;28;20151;-52
2022/05/02 02:09:14;;;;;;;17.25;10.90;;;6.00;99.90;;;;;;5069371;28;20090;-51
2022/05/02 02:11:40;;;;;;;15.38;9.82;;;6.00;99.90;;;;;;5073064;28;20037;-50
2022/05/02 02:14:05;;;;;;;16.70;10.95;;;6.00;99.90;;;;;;5069628;28;20040;-50
2022/05/02 02:16:31;;;;;;;14.10;10.23;;;6.00;99.90;;;;;;5075552;28;20028;-49
2022/05/02 02:18:56;;;;;;;14.35;10.00;;;6.00;99.90;;;;;;5061472;28;20167;-52
2022/05/02 02:21:22;;;;;;;15.40;10.75;;;5.90;99.90;;;;;;5067019;28;20488;-52
2022/05/02 02:23:48;;;;;;;13.85;10.13;;;5.90;99.90;;;;;;5065699;28;20067;-51
2022/05/02 02:26:14;;;;;;;15.52;10.20;;;5.90;99.90;;;;;;5075052;28;20410;-49
2022/05/02 02:28:39;;;;;;;17.27;11.82;;;5.80;99.90;;;;;;5075027;28;20075;-52
2022/05/02 02:31:05;;;;;;;16.63;10.80;;;5.80;99.90;;;;;;5079471;28;20301;-49
2022/05/02 02:33:30;;;;;;;20.15;11.52;;;5.70;99.90;;;;;;5075977;28;20089;-52
2022/05/02 02:35:56;;;;;;;16.08;10.68;;;5.70;99.90;;;;;;5074950;28;20125;-52
2022/05/02 02:38:22;;;;;;;16.73;11.18;;;5.60;99.90;;;;;;5074662;28;20036;-51
2022/05/02 02:40:48;;;;;;;18.10;11.50;;;5.60;99.90;;;;;;5073523;28;20040;-50
2022/05/02 02:43:13;;;;;;;17.45;10.90;;;5.50;99.90;;;;;;5074980;28;20028;-52
2022/05/02 02:45:39;;;;;;;19.25;11.45;;;5.50;99.90;;;;;;5081780;28;20482;-53
2022/05/02 02:48:05;;;;;;;16.48;11.18;;;5.50;99.90;;;;;;5080966;28;20076;-52
2022/05/02 02:50:31;;;;;;;17.40;11.13;;;5.50;99.90;;;;;;5078378;28;20044;-52
2022/05/02 02:52:57;;;;;;;20.13;11.73;;;5.50;99.90;;;;;;5073096;28;20383;-52
2022/05/02 02:55:22;;;;;;;16.80;10.75;;;5.50;99.90;;;;;;5078263;28;20111;-51
2022/05/02 02:57:48;;;;;;;15.88;11.52;;;5.50;99.90;;;;;;5056984;28;20049;-51
2022/05/02 03:00:14;;;;;;;17.15;11.40;;;5.40;99.90;;;;;;5040454;28;20044;-52
2022/05/02 03:02:41;;;;;;;18.92;11.98;;;5.40;99.90;;;;;;5074238;28;20036;-51
2022/05/02 03:07:52;;;;;;;18.95;12.23;;;5.40;99.90;;;;;;5082392;28;20051;-51
2022/05/02 03:10:18;;;;;;;18.10;11.95;;;5.50;99.90;;;;;;5081898;28;20390;-50
2022/05/02 03:12:44;;;;;;;22.25;12.35;;;5.50;99.90;;;;;;5078469;28;20029;-52
2022/05/02 03:15:09;;;;;;;18.63;12.55;;;5.50;99.90;;;;;;5074666;28;20036;-53
2022/05/02 03:17:35;;;;;;;16.83;12.57;;;5.50;99.90;;;;;;5077483;28;20089;-50
2022/05/02 03:20:01;;;;;;;20.10;12.43;;;5.50;99.90;;;;;;5093227;28;20454;-51
2022/05/02 03:22:26;;;;;;;18.98;12.13;;;5.50;99.90;;;;;;5054943;28;20048;-51
2022/05/02 03:24:52;;;;;;;18.60;12.57;;;5.50;99.90;;;;;;5073973;28;20036;-51
2022/05/02 03:27:17;;;;;;;21.80;13.43;;;5.50;99.90;;;;;;5085883;28;20040;-53
2022/05/02 03:29:43;;;;;;;18.60;12.80;;;5.60;99.90;;;;;;5084554;28;20040;-51
2022/05/02 03:32:08;;;;;;;20.05;12.18;;;5.50;99.90;;;;;;5072748;28;20079;-52
2022/05/02 03:34:34;;;;;;;19.17;12.65;;;5.50;99.90;;;;;;5053759;28;20150;-51
2022/05/02 03:36:59;;;;;;;20.70;12.90;;;5.50;99.90;;;;;;5071706;28;20047;-49
2022/05/02 03:39:25;;;;;;;21.85;13.18;;;5.50;99.90;;;;;;5073703;28;20071;-49
2022/05/02 03:41:51;;;;;;;22.17;13.57;;;5.40;99.90;;;;;;5074001;28;20047;-52
2022/05/02 03:44:16;;;;;;;20.42;13.38;;;5.40;99.90;;;;;;5087007;28;20090;-49
2022/05/02 03:46:42;;;;;;;21.73;13.23;;;5.40;99.90;;;;;;5079590;28;20094;-51
2022/05/02 03:49:07;;;;;;;20.63;13.73;;;5.40;99.90;;;;;;5070600;28;20036;-49
2022/05/02 03:51:33;;;;;;;22.20;13.30;;;5.40;99.90;;;;;;5069518;28;20102;-49
2022/05/02 03:53:59;;;;;;;21.13;12.93;;;5.30;99.90;;;;;;5089962;22;20116;-49
2022/05/02 03:56:25;;;;;;;19.23;13.95;;;5.30;99.90;;;;;;5073914;28;20122;-49
2022/05/02 03:58:51;;;;;;;22.55;13.52;;;5.30;99.90;;;;;;5071087;28;20076;-48
2022/05/02 04:01:18;;;;;;;21.70;14.10;;;5.30;99.90;;;;;;5074525;28;20041;-48
2022/05/02 04:03:43;;;;;;;19.20;13.18;;;5.30;99.90;;;;;;5073386;28;20040;-48
2022/05/02 04:06:09;;;;;;;19.52;13.63;;;5.30;99.90;;;;;;5072201;28;20089;-48
2022/05/02 04:08:34;;;;;;;21.23;13.85;;;5.30;99.90;;;;;;5072676;28;20047;-48
2022/05/02 04:11:00;;;;;;;21.33;14.50;;;5.30;99.90;;;;;;5075922;28;20040;-48
2022/05/02 04:13:26;;;;;;;23.10;14.60;;;5.30;99.90;;;;;;5072689;28;20059;-48
2022/05/02 04:15:51;;;;;;;23.42;14.25;;;5.30;99.90;;;;;;5072897;28;20036;-48
2022/05/02 04:18:17;;;;;;;21.48;13.90;;;5.30;99.90;;;;;;5072774;28;20041;-49
2022/05/02 04:20:43;;;;;;;22.58;14.43;;;5.30;99.90;;;;;;5071774;28;20036;-48
2022/05/02 04:23:09;;;;;;;22.73;13.05;;;5.30;99.90;;;;;;5067053;28;20059;-49
2022/05/02 04:25:34;;;;;;;21.00;12.52;;;5.20;99.90;;;;;;5066393;28;20062;-49
2022/05/02 04:28:00;;;;;;;22.73;14.77;;;5.20;99.90;;;;;;5079522;28;20036;-48
2022/05/02 04:30:25;;;;;;;20.77;14.48;;;5.10;99.90;;;;;;5072869;28;20419;-48
2022/05/02 04:32:51;;;;;;;20.48;13.65;;;5.20;99.90;;;;;;5073132;28;20047;-48
2022/05/02 04:35:16;;;;;;;22.42;13.75;;;5.20;99.90;;;;;;5067944;28;20032;-48
2022/05/02 04:37:42;;;;;;;22.08;13.73;;;5.10;99.90;;;;;;5060528;28;20491;-48
2022/05/02 04:40:08;;;;;;;18.13;12.73;;;5.10;99.90;;;;;;5072717;28;20044;-49
2022/05/02 04:42:33;;;;;;;19.88;13.90;;;5.10;99.90;;;;;;5084788;28;20115;-48
2022/05/02 04:44:59;;;;;;;20.88;14.60;;;5.10;99.90;;;;;;5073319;28;20036;-50
2022/05/02 04:47:24;;;;;;;22.58;14.13;;;5.10;99.90;;;;;;5075102;28;20036;-48
2022/05/02 04:49:50;;;;;;;24.55;14.80;;;5.10;99.90;;;;;;5065028;28;20037;-48
2022/05/02 04:52:15;;;;;;;20.38;13.40;;;5.20;99.90;;;;;;5081601;28;20044;-48
2022/05/02 04:54:41;;;;;;;20.25;14.10;;;5.20;99.90;;;;;;5068779;28;20037;-48
2022/05/02 04:57:07;;;;;;;23.20;14.65;;;5.20;99.90;;;;;;5078802;28;20447;-51
2022/05/02 04:59:32;;;;;;;32.38;14.63;;;5.30;99.90;;;;;;5066095;28;20063;-52
2022/05/02 05:01:58;;;;;;;21.63;14.43;;;5.30;99.90;;;;;;5066077;28;20093;-52
2022/05/02 05:04:24;;;;;;;23.33;14.45;;;5.30;99.90;;;;;;5067711;28;20033;-51
2022/05/02 05:06:50;;;;;;;22.77;14.52;;;5.40;99.90;;;;;;5064351;28;20402;-52
2022/05/02 05:09:15;;;;;;;24.05;14.75;;;5.40;99.90;;;;;;5070679;28;20036;-52
2022/05/02 05:12:11;;;;;;;22.65;14.38;;;5.40;99.90;;;;;;5069010;28;20029;-52
2022/05/02 05:17:58;;;;;;;20.63;14.48;;;6.30;99.90;;;;;;5054612;28;20050;-52
2022/05/02 05:20:47;;;;;;;23.00;14.40;;;5.70;99.90;;;;;;5066205;28;20113;-52
2022/05/02 05:23:55;;;;;;;21.42;13.93;;;5.80;99.90;;;;;;5062652;28;20041;-50
2022/05/02 05:26:47;;;;;;;23.65;14.32;;;5.80;99.90;;;;;;4990176;28;20056;-51
2022/05/02 05:29:29;;;;;;;25.42;14.73;;;5.90;99.90;;;;;;5060036;28;20062;-52
2022/05/02 05:32:15;;;;;;;21.07;13.87;;;5.90;99.90;;;;;;5055439;28;20037;-51
2022/05/02 05:35:05;;;;;;;20.80;14.30;;;6.10;99.90;;;;;;5058260;28;20037;-51
2022/05/02 05:38:03;;;;;;;22.92;14.25;;;6.10;99.90;;;;;;5058622;28;20047;-50
2022/05/02 05:40:42;;;;;;;22.25;13.95;;;6.20;99.90;;;;;;5058434;28;20040;-52
2022/05/02 05:43:33;;;;;;;20.50;14.15;;;6.30;99.90;;;;;;5066231;28;20040;-51
2022/05/02 05:46:07;;;;;;;22.15;14.45;;;6.40;99.90;;;;;;5062659;28;20100;-49
2022/05/02 05:48:54;;;;;;;21.92;13.88;;;6.50;99.90;;;;;;5058393;28;20129;-49
2022/05/02 05:51:38;;;;;;;20.05;13.80;;;6.60;99.90;;;;;;5058612;28;20035;-48
2022/05/02 05:54:39;;;;;;;18.90;12.38;;;6.90;99.90;;;;;;5064550;28;20166;-52
2022/05/02 05:57:11;;;;;;;21.05;12.88;;;7.50;99.90;;;;;;5063768;28;20111;-50
2022/05/02 05:59:56;;;;;;;17.52;12.82;;;8.00;99.90;;;;;;5062020;28;20410;-50
2022/05/02 06:02:27;;;;;;;20.35;13.50;;;8.30;99.90;;;;;;5058564;28;20044;-50
2022/05/02 06:04:56;;;;;;;18.15;13.50;;;8.40;99.90;;;;;;5068030;28;20548;-48
2022/05/02 06:07:22;;;;;;;18.48;12.90;;;8.40;99.90;;;;;;5071062;28;20519;-49
2022/05/02 06:09:48;;;;;;;19.20;13.15;;;8.40;99.90;;;;;;5071358;28;20045;-48
2022/05/02 06:12:15;;;;;;;19.77;13.40;;;8.60;99.90;;;;;;5069975;28;20068;-48
2022/05/02 06:20:20;;;;;;;19.48;13.07;;;9.70;99.90;;;;;;5051242;28;20391;-49
2022/05/02 06:22:47;;;;;;;16.73;12.35;;;9.40;99.90;;;;;;5050895;28;20049;-49
2022/05/02 06:25:14;;;;;;;18.83;13.25;;;9.20;99.90;;;;;;5051172;28;20044;-49
2022/05/02 06:27:42;;;;;;;18.05;12.90;;;9.00;99.90;;;;;;5051886;28;20155;-48
2022/05/02 06:30:09;;;;;;;20.92;13.73;;;8.90;99.90;;;;;;5068780;28;20040;-49
2022/05/02 06:32:42;;;;;;;20.77;12.77;;;8.90;99.90;;;;;;5051370;28;20499;-49
2022/05/02 06:35:08;;;;;;;21.38;12.93;;;9.00;99.90;;;;;;5049881;28;20116;-49
2022/05/02 06:37:42;;;;;;;18.38;13.38;;;9.20;99.90;;;;;;5050591;28;20127;-49
2022/05/02 06:40:16;;;;;;;16.48;12.13;;;9.20;99.90;;;;;;5051326;28;20049;-52
2022/05/02 06:43:03;;;;;;;19.40;13.10;;;9.30;99.90;;;;;;5054810;28;20390;-51
2022/05/02 06:46:04;;;;;;;19.90;12.32;;;9.40;99.90;;;;;;5058104;28;20040;-52
2022/05/02 06:48:45;;;;;;;18.17;12.75;;;9.40;99.90;;;;;;5064081;28;20117;-52
2022/05/02 06:51:34;;;;;;;19.95;12.70;;;9.50;99.90;;;;;;5064029;28;20049;-52
2022/05/02 06:54:19;;;;;;;20.33;12.73;;;9.60;99.90;;;;;;5068998;28;20079;-52
2022/05/02 06:56:48;;;;;;;18.35;13.10;;;9.70;99.90;;;;;;5069144;28;20127;-51
2022/05/02 06:59:51;;;;;;;20.17;12.68;;;9.80;99.90;;;;;;5067530;28;20075;-50
2022/05/02 07:02:48;;;;;;;20.60;11.80;;;9.90;99.90;;;;;;5049009;28;20128;-49
2022/05/02 07:05:48;;;;;;;17.15;12.60;;;10.00;99.90;;;;;;5049193;28;20123;-50
2022/05/02 07:08:26;;;;;;;19.77;12.70;;;10.00;99.90;;;;;;5047388;28;20045;-52
2022/05/02 07:11:01;;;;;;;18.95;12.90;;;10.20;99.90;;;;;;5070845;28;20044;-53
2022/05/02 07:14:01;;;;;;;18.60;12.77;;;10.30;99.90;;;;;;5068303;28;20086;-53
2022/05/02 07:16:29;;;;;;;18.00;11.52;;;10.40;99.90;;;;;;5072593;28;20036;-53
2022/05/02 07:19:15;;;;;;;19.38;13.15;;;10.50;99.90;;;;;;5079190;28;20032;-53
2022/05/02 07:21:56;;;;;;;19.73;12.95;;;10.70;99.90;;;;;;5078369;28;20087;-53
2022/05/02 07:24:41;;;;;;;19.30;12.38;;;10.80;99.90;;;;;;5066582;28;20036;-53
2022/05/02 07:27:13;;;;;;;18.67;12.63;;;10.90;99.90;;;;;;5064689;28;20063;-53
2022/05/02 07:29:41;;;;;;;16.98;12.07;;;11.10;99.90;;;;;;5067225;28;20172;-54
2022/05/02 07:32:11;;;;;;;19.15;11.65;;;11.20;99.90;;;;;;5073498;28;20112;-53
2022/05/02 07:34:38;;;;;;;16.08;12.23;;;11.30;99.90;;;;;;5065107;28;20467;-53
2022/05/02 07:37:05;;;;;;;20.95;12.88;;;11.50;99.90;;;;;;5070372;28;20062;-53
2022/05/02 07:39:33;;;;;;;23.08;12.70;;;11.70;99.90;;;;;;5067290;28;20363;-53
2022/05/02 07:42:01;;;;;;;19.50;12.13;;;11.80;99.90;;;;;;5064340;28;20090;-53
2022/05/02 07:44:33;;;;;;;20.55;11.65;;;12.00;99.90;;;;;;5066088;28;20059;-53
2022/05/02 07:47:02;;;;;;;15.35;11.38;;;12.10;99.90;;;;;;5053563;28;20029;-53
2022/05/02 07:49:30;;;;;;;15.73;11.73;;;12.20;99.90;;;;;;5056219;28;20048;-53
2022/05/02 07:52:00;;;;;;;15.95;11.20;;;12.30;99.90;;;;;;5061783;28;20648;-53
2022/05/02 07:54:27;;;;;;;15.73;10.80;;;12.40;99.90;;;;;;5061773;28;20029;-53
2022/05/02 07:56:58;;;;;;;17.88;10.93;;;12.50;99.90;;;;;;5060158;28;20067;-53
2022/05/02 07:59:29;;;;;;;17.33;10.30;;;12.60;99.90;;;;;;5062908;28;20405;-53
2022/05/02 08:01:54;;;;;;;14.73;10.57;;;12.80;99.90;;;;;;5066675;28;20063;-53
2022/05/02 08:04:22;;;;;;;14.57;9.60;;;12.90;99.90;;;;;;5062312;28;20028;-53
2022/05/02 08:07:03;;;;;;;14.77;9.70;;;12.90;99.90;;;;;;5072761;28;20032;-53
2022/05/02 08:09:53;;;;;;;12.45;8.13;;;13.00;99.40;;;;;;5053542;28;20037;-53
2022/05/02 08:12:39;;;;;;;13.90;9.15;;;13.10;98.40;;;;;;5068945;28;20037;-53
2022/05/02 08:15:08;;;;;;;14.90;9.93;;;13.20;98.40;;;;;;5064934;28;20032;-53
2022/05/02 08:17:53;;;;;;;13.80;9.05;;;13.30;98.90;;;;;;5073107;28;20040;-53
2022/05/02 08:20:37;;;;;;;13.20;9.10;;;13.40;98.70;;;;;;5065454;28;20079;-53
2022/05/02 08:29:35;;;;;;;14.10;9.27;;;13.60;94.40;;;;;;5057121;28;20102;-54
2022/05/02 08:32:10;;;;;;;12.25;8.13;;;13.70;94.30;;;;;;5063756;28;20029;-53
2022/05/02 08:34:51;;;;;;;10.13;7.65;;;13.80;90.70;;;;;;5065146;28;20041;-53
2022/05/02 08:37:41;;;;;;;14.15;8.90;;;13.80;91.00;;;;;;5065987;28;20044;-53
2022/05/02 08:40:24;;;;;;;14.30;9.05;;;13.70;92.20;;;;;;5061822;28;20035;-53
2022/05/02 08:43:11;;;;;;;12.80;9.15;;;13.70;92.90;;;;;;5061778;28;20609;-53
2022/05/02 08:46:09;;;;;;;12.35;8.70;;;13.80;93.20;;;;;;5067518;28;20034;-53
2022/05/02 08:52:49;;;;;;;11.23;7.13;;;14.30;91.70;;;;;;5027598;28;20133;-53
2022/05/02 08:56:00;;;;;;;10.38;7.32;;;14.50;85.80;;;;;;5029296;28;20029;-50
2022/05/02 08:59:01;;;;;;;12.15;7.72;;;14.60;83.20;;;;;;5051702;28;20057;-50
2022/05/02 09:02:08;;;;;;;11.55;7.63;;;14.80;79.60;;;;;;5052958;28;20045;-50
2022/05/02 09:05:00;;;;;;;11.50;7.85;;;14.90;83.90;;;;;;5052576;28;20047;-50
2022/05/02 09:07:59;;;;;;;11.63;6.90;;;15.00;80.00;;;;;;5069260;28;20094;-50
2022/05/02 09:11:11;;;;;;;11.07;6.35;;;15.10;72.30;;;;;;5066798;28;20445;-50
2022/05/02 09:13:55;;;;;;;9.65;6.30;;;15.20;72.80;;;;;;5060169;28;20048;-50
2022/05/02 09:17:02;;;;;;;12.73;6.30;;;15.20;73.30;;;;;;5052220;28;20043;-50
2022/05/02 09:19:55;;;;;;;12.68;7.22;;;15.20;75.50;;;;;;5052027;28;20036;-50
2022/05/02 09:22:32;;;;;;;11.82;7.93;;;15.20;73.00;;;;;;5069970;28;20409;-50
2022/05/02 09:25:10;;;;;;;10.88;7.72;;;15.20;70.50;;;;;;5054458;28;20049;-50
2022/05/02 09:27:36;;;;;;;10.60;7.03;;;15.30;67.90;;;;;;5051584;28;20033;-50
2022/05/02 09:30:50;;;;;;;11.05;6.95;;;15.20;69.10;;;;;;5051903;28;20056;-50
2022/05/02 09:33:30;;;;;;;15.43;7.88;;;15.30;72.80;;;;;;5051617;28;20041;-50
2022/05/02 09:36:22;;;;;;;12.30;7.30;;;15.30;69.20;;;;;;5061162;28;20375;-50
2022/05/02 09:38:50;;;;;;;;;;;15.30;69.20;;;;;;5055583;28;20029;-50
2022/05/02 09:41:35;;;;;;;9.45;7.10;;;15.40;69.50;;;;;;5051784;28;19920;-50
2022/05/02 09:50:34;;;;;;;12.07;6.72;;;15.70;67.70;;;;;;5070586;28;20043;-53
2022/05/02 09:53:17;;;;;;;11.57;8.02;;;15.90;68.10;;;;;;5065886;28;20037;-53
2022/05/02 09:59:06;;;;;;;9.82;6.63;;;16.10;64.80;;;;;;5051621;28;20107;-52
2022/05/02 10:01:33;;;;;;;11.15;6.65;;;16.00;60.80;;;;;;5051289;28;20032;-51
2022/05/02 10:03:58;;;;;;;11.35;6.45;;;15.90;62.50;;;;;;5051505;28;20041;-50
2022/05/02 10:06:41;;;;;;;10.00;7.18;;;16.00;64.50;;;;;;5054284;28;20394;-51
2022/05/02 10:09:25;;;;;;;;;;;16.20;64.00;;;;;;5071253;28;20131;-53
2022/05/02 10:12:25;;;;;;;9.70;6.38;;;16.30;63.20;;;;;;5071245;28;19945;-53
2022/05/02 10:15:14;;;;;;;11.07;6.57;;;16.40;61.80;;;;;;5071325;28;20043;-50
2022/05/02 10:18:04;;;;;;;7.63;5.90;;;16.40;58.20;;;;;;5065959;28;20040;-54
2022/05/02 10:20:44;;;;;;;12.98;6.55;;;16.30;59.60;;;;;;5069108;28;20534;-51
2022/05/02 10:23:44;;;;;;;10.65;6.30;;;16.30;58.70;;;;;;5068600;28;20044;-53
2022/05/02 10:26:31;;;;;;;10.00;6.70;;;16.30;59.10;;;;;;5058172;28;20051;-53
2022/05/02 10:29:25;;;;;;;11.45;6.45;;;16.40;57.90;;;;;;5062770;28;20040;-52
2022/05/02 10:32:04;;;;;;;8.93;6.07;;;16.40;57.60;;;;;;5033689;28;20090;-54
2022/05/02 10:34:33;;;;;;;11.93;6.40;;;16.40;56.10;;;;;;5059221;28;20033;-54
2022/05/02 10:37:03;;;;;;;10.07;6.30;;;16.40;57.40;;;;;;5069227;28;20036;-48
2022/05/02 10:39:40;;;;;;;9.50;6.32;;;16.50;57.00;;;;;;5051002;28;20045;-51
2022/05/02 10:42:08;;;;;;;9.77;6.38;;;16.40;57.10;;;;;;5051077;28;20120;-53
2022/05/02 10:45:02;;;;;;;8.27;6.20;;;16.30;58.40;;;;;;5050880;28;20040;-55
2022/05/02 10:47:40;;;;;;;12.48;6.30;;;16.40;59.00;;;;;;5051988;28;20414;-52
2022/05/02 10:50:16;;;;;;;11.52;6.25;;;16.60;60.00;;;;;;5061191;28;20079;-52
2022/05/02 10:52:51;;;;;;;8.85;5.82;;;16.80;55.10;;;;;;5066638;28;20077;-51
2022/05/02 10:55:19;;;;;;;8.52;6.07;;;16.80;54.90;;;;;;5054611;28;20037;-54
2022/05/02 10:57:58;;;;;;;7.93;5.47;;;16.80;51.80;;;;;;5053093;28;20183;-52
2022/05/02 11:00:24;;;;;;;8.27;5.80;;;16.70;54.60;;;;;;5054883;28;20094;-51
2022/05/02 11:03:07;;;;;;;8.73;5.80;;;16.70;55.10;;;;;;5053682;28;20041;-50
2022/05/02 11:05:40;;;;;;;8.93;5.53;;;16.80;54.30;;;;;;5065792;28;20032;-53
2022/05/02 11:08:09;;;;;;;9.25;5.68;;;16.90;55.00;;;;;;5065267;28;20541;-50
2022/05/02 11:10:41;;;;;;;10.68;6.00;;;16.90;55.00;;;;;;5067879;28;20495;-55
2022/05/02 11:13:29;;;;;;;7.65;5.18;;;16.90;54.20;;;;;;5073399;28;20043;-54
2022/05/02 11:16:03;;;;;;;7.95;5.10;;;17.00;53.70;;;;;;5072416;28;20165;-51
2022/05/02 11:21:28;;;;;;;9.45;5.57;;;16.90;51.20;;;;;;5054533;28;20406;-55
2022/05/02 11:24:15;;;;;;;10.35;5.15;;;16.80;51.20;;;;;;5054427;28;20044;-51
2022/05/02 11:27:07;;;;;;;9.93;5.78;;;16.90;53.10;;;;;;5068331;28;20068;-52
2022/05/02 11:29:48;;;;;;;9.65;5.57;;;16.90;52.20;;;;;;5068041;28;20101;-51
2022/05/02 11:32:27;;;;;;;11.73;6.25;;;16.90;53.20;;;;;;5074293;28;20146;-53
2022/05/02 11:35:11;;;;;;;7.82;5.20;;;16.80;53.30;;;;;;5073091;28;20111;-55
2022/05/02 11:37:54;;;;;;;8.10;5.22;;;16.80;52.70;;;;;;5057926;28;20051;-54
2022/05/02 11:40:27;;;;;;;8.48;5.03;;;17.00;50.30;;;;;;5054081;28;20045;-53
2022/05/02 11:42:54;;;;;;;8.95;5.55;;;16.90;51.10;;;;;;5053899;28;20491;-53
2022/05/02 11:45:45;;;;;;;8.10;4.95;;;17.00;50.20;;;;;;5070981;28;20040;-52
2022/05/02 11:48:19;;;;;;;8.57;5.68;;;17.10;49.30;;;;;;5054447;28;20681;-55
2022/05/02 11:50:47;;;;;;;8.88;5.63;;;17.00;49.50;;;;;;5053756;28;20073;-51
2022/05/02 11:53:15;;;;;;;9.15;6.03;;;17.00;49.80;;;;;;5065735;28;20509;-52
2022/05/02 11:55:42;;;;;;;8.70;5.70;;;17.00;50.40;;;;;;5069986;28;20397;-51
2022/05/02 11:58:31;;;;;;;8.35;5.78;;;17.00;51.50;;;;;;5070028;28;20111;-54
2022/05/02 12:01:06;;;;;;;8.75;6.28;;;17.10;51.40;;;;;;5048187;28;20047;-51
2022/05/02 12:03:54;;;;;;;8.27;5.63;;;17.10;51.50;;;;;;5061949;28;20029;-52
2022/05/02 12:06:31;;;;;;;10.77;6.85;;;17.20;52.60;;;;;;5069596;28;20032;-53
2022/05/02 12:09:03;;;;;;;11.02;6.03;;;17.20;52.10;;;;;;5063615;28;20040;-51
2022/05/02 12:11:30;;;;;;;12.20;6.35;;;17.20;52.70;;;;;;5065801;28;20076;-52
2022/05/02 12:13:55;;;;;;;8.25;6.10;;;17.20;53.00;;;;;;5068772;28;20033;-51
2022/05/02 12:16:21;;;;;;;8.73;6.25;;;17.30;52.50;;;;;;5063180;28;20047;-49
2022/05/02 12:18:57;;;;;;;9.82;6.07;;;17.40;53.00;;;;;;5060825;28;20485;-52
2022/05/02 12:21:31;;;;;;;10.52;6.20;;;17.50;51.20;;;;;;5061712;28;20036;-54
2022/05/02 12:23:58;;;;;;;9.13;6.20;;;17.40;51.70;;;;;;5062138;28;20040;-54
2022/05/02 12:26:25;;;;;;;9.68;6.80;;;17.30;50.80;;;;;;5067142;28;20387;-53
2022/05/02 12:28:58;;;;;;;8.73;5.85;;;17.20;52.20;;;;;;5060667;28;20045;-54
2022/05/02 12:31:25;;;;;;;10.10;6.20;;;17.20;51.90;;;;;;5065798;28;20036;-52
2022/05/02 12:34:00;;;;;;;12.48;6.57;;;17.20;52.90;;;;;;5062436;28;20475;-54
2022/05/02 12:36:38;;;;;;;8.25;5.43;;;17.50;50.50;;;;;;5062420;28;20037;-54
2022/05/02 12:39:05;;;;;;;9.50;5.45;;;17.60;49.10;;;;;;5057433;28;20041;-54
2022/05/02 12:41:43;;;;;;;9.95;6.55;;;17.60;51.10;;;;;;5060256;28;20089;-52
2022/05/02 12:44:12;;;;;;;9.30;6.20;;;17.50;50.20;;;;;;5052950;28;20099;-54
2022/05/02 12:46:40;;;;;;;9.40;6.82;;;17.40;50.70;;;;;;5053496;28;20068;-52
2022/05/02 12:49:11;;;;;;;10.32;6.07;;;17.30;51.70;;;;;;5054205;28;20057;-51
2022/05/02 12:51:37;;;;;;;8.65;5.70;;;17.30;52.90;;;;;;5051886;28;20041;-51
2022/05/02 12:54:25;;;;;;;9.23;5.88;;;17.50;53.60;;;;;;5057211;28;20041;-52
2022/05/02 13:02:45;;;;;;;9.55;6.10;;;17.70;51.10;;;;;;5067367;28;20140;-51
2022/05/02 13:05:18;;;;;;;10.27;6.05;;;17.50;50.60;;;;;;5061160;28;20512;-51
2022/05/02 13:07:47;;;;;;;8.07;5.72;;;17.30;52.20;;;;;;5069622;28;20037;-51
2022/05/02 13:10:17;;;;;;;8.55;5.80;;;17.10;53.10;;;;;;5055746;28;20071;-51
2022/05/02 13:13:09;;;;;;;8.07;6.05;;;17.20;53.30;;;;;;5069348;28;20570;-51
2022/05/02 13:15:48;;;;;;;9.20;5.90;;;17.40;52.50;;;;;;5064163;28;20043;-52
2022/05/02 13:18:18;;;;;;;8.35;5.85;;;17.60;51.10;;;;;;5067670;28;20397;-51
2022/05/02 13:20:58;;;;;;;8.88;5.43;;;17.60;51.50;;;;;;5056867;28;20041;-51
2022/05/02 13:23:43;;;;;;;11.20;5.40;;;17.80;51.10;;;;;;5061340;28;20440;-50
2022/05/02 13:26:18;;;;;;;7.97;5.35;;;17.90;50.10;;;;;;5062387;28;20087;-51
2022/05/02 13:29:07;;;;;;;8.43;4.88;;;17.60;49.80;;;;;;5055629;28;20049;-51
2022/05/02 13:31:45;;;;;;;6.85;5.00;;;17.50;49.90;;;;;;5063353;28;20051;-51
2022/05/02 13:34:22;;;;;;;8.55;5.80;;;17.40;52.40;;;;;;5067443;28;20043;-49
2022/05/02 13:36:50;;;;;;;7.65;5.05;;;17.60;53.60;;;;;;5067613;28;20044;-51
2022/05/02 13:39:20;;;;;;;8.55;5.28;;;17.80;53.40;;;;;;5063471;28;20093;-50
2022/05/02 13:42:07;;;;;;;6.75;4.90;;;17.90;51.80;;;;;;5068543;28;20040;-51
2022/05/02 13:44:58;;;;;;;7.22;5.10;;;18.00;50.70;;;;;;5061847;28;20410;-51
2022/05/02 13:47:41;;;;;;;10.00;5.10;;;18.10;50.70;;;;;;5062590;28;20444;-51
2022/05/02 13:50:12;;;;;;;7.13;4.95;;;18.20;49.90;;;;;;5057720;28;20408;-51
2022/05/02 13:53:02;;;;;;;8.88;4.78;;;18.10;49.70;;;;;;5053151;28;20040;-49
2022/05/02 13:55:29;;;;;;;9.55;5.78;;;18.40;47.60;;;;;;5064585;28;20032;-51